Empire State — WDE9268 — position and weather

sailwx.info

Track history (hours):
 
Tides and Currents Weather Stations Pressure Air Temp Water Temp Dewpoint Dewpoint Depression Visibility Wind Speed Wind Dir Waves Ship Positions

Empire State

Owner: Port Imperial Ferry, Weehawken, NJ. More information available from US FCC via Universal Licensing System and Coast Guard Vessel Documentation Center.

Last reported at 2018-Jun-18 01:30 UTC. Time now 2018-Jun-18 01:32 UTC.
Position N 40°45' W 073°58'.

Length 23 m; draft 2 m.

Type: Passenger vessel. MMSI: 367415390.

Date/timePositionNaut miles runAvg speedWind from/ knotsBaromVisibWave heightAir tempDewpointWater temp
2018-Jun-18 01:30N 40°45' W 073°58'1 2.5
2018-Jun-18 01:00N 40°43' W 073°58'2 4.2
2018-Jun-18 00:30N 40°42' W 074°00'3 5.1
2018-Jun-18 00:00N 40°44' W 073°58'1 1.8
2018-Jun-17 23:30N 40°43' W 073°58'2 4.0
2018-Jun-17 23:00N 40°42' W 074°00'2 4.1
2018-Jun-17 22:30N 40°43' W 073°58'1 2.3
2018-Jun-17 22:00N 40°44' W 073°58'2 4.2
2018-Jun-17 21:30N 40°42' W 073°59'2 3.6
2018-Jun-17 21:00N 40°41' W 074°01'2 4.0
2018-Jun-17 20:24N 40°43' W 073°58'2 2.9
2018-Jun-17 19:51N 40°45' W 073°58'2 4.1
2018-Jun-17 19:22N 40°43' W 073°58'2 3.7
2018-Jun-17 18:55N 40°42' W 074°00'0 0.3
2018-Jun-17 18:29N 40°42' W 074°00'2 4.3
2018-Jun-17 17:59N 40°44' W 073°58'0 0.5
2018-Jun-17 17:16N 40°43' W 073°58'2 6.9
2018-Jun-17 17:00N 40°42' W 073°60'0 0.0
2018-Jun-17 16:18N 40°42' W 073°60'2 3.5
2018-Jun-17 15:48N 40°43' W 073°58'0 0.4
2018-Jun-17 15:06N 40°44' W 073°58'1 4.4
2018-Jun-17 14:52N 40°43' W 073°58'2 5.1
2018-Jun-17 14:28N 40°42' W 074°01'4 0.4
2018-Jun-17 01:43N 40°46' W 074°01'314.7
2018-Jun-17 01:30N 40°43' W 074°01'2 4.8
2018-Jun-17 01:00N 40°43' W 073°58'2 4.0
2018-Jun-17 00:30N 40°45' W 073°58'2 4.4
2018-Jun-17 00:01N 40°43' W 073°58'2 3.3
2018-Jun-16 23:31N 40°42' W 074°00'3 5.0
2018-Jun-16 23:00N 40°44' W 073°58'1 1.1
2018-Jun-16 22:30N 40°43' W 073°58'2 4.3
2018-Jun-16 22:01N 40°42' W 074°00'0 0.9
2018-Jun-16 21:30N 40°42' W 073°60'2 4.4
2018-Jun-16 21:00N 40°44' W 073°58'0 0.9
2018-Jun-16 20:30N 40°43' W 073°58'2 3.9
2018-Jun-16 20:01N 40°42' W 073°60'0 0.7
2018-Jun-16 19:31N 40°42' W 074°00'3 5.0
2018-Jun-16 19:00N 40°44' W 073°58'0 0.7
2018-Jun-16 18:31N 40°44' W 073°58'2 4.4
2018-Jun-16 18:00N 40°42' W 074°00'0 0.3
2018-Jun-16 17:30N 40°42' W 074°00'2 4.3
2018-Jun-16 17:01N 40°43' W 073°58'1 2.5
2018-Jun-16 16:30N 40°45' W 073°58'3 5.3
2018-Jun-16 15:59N 40°42' W 073°60'2 0.1
2018-Jun-15 22:58N 40°44' W 074°02'1 3.2
2018-Jun-15 22:30N 40°43' W 074°02'1 2.0
2018-Jun-15 22:01N 40°42' W 074°00'2 4.5
2018-Jun-15 21:30N 40°44' W 074°02'2 4.3
2018-Jun-15 21:01N 40°42' W 074°01'1 1.5
2018-Jun-15 20:30N 40°42' W 074°00'2 4.4
2018-Jun-15 20:00N 40°44' W 074°02'2 3.3
2018-Jun-15 19:30N 40°42' W 074°01'2 0.3
2018-Jun-15 14:22N 40°44' W 074°02'2 6.0
2018-Jun-15 14:00N 40°46' W 074°01'2 3.3
2018-Jun-15 13:30N 40°45' W 074°01'1 1.4
2018-Jun-15 13:01N 40°44' W 074°02'2 4.0
2018-Jun-15 12:31N 40°42' W 074°00'1 2.1
2018-Jun-15 12:00N 40°43' W 074°02'1 2.5
2018-Jun-15 11:30N 40°44' W 074°02'2 4.2
2018-Jun-15 11:00N 40°42' W 074°00'1 2.3
2018-Jun-15 10:30N 40°43' W 074°02'1 2.5
2018-Jun-15 10:00N 40°44' W 074°02'0 0.0
2018-Jun-15 09:29N 40°44' W 074°02'0 0.0
2018-Jun-14 23:01N 40°44' W 074°02'0 0.0
2018-Jun-14 23:01N 40°44' W 074°02'1 2.9
2018-Jun-14 22:31N 40°43' W 074°02'1 2.1
2018-Jun-14 22:00N 40°42' W 074°00'2 4.4
2018-Jun-14 21:31N 40°44' W 074°02'2 4.1
2018-Jun-14 21:00N 40°42' W 074°01'1 1.4
2018-Jun-14 20:30N 40°42' W 074°00'2 4.4
2018-Jun-14 20:00N 40°44' W 074°02'2 3.4
2018-Jun-14 19:30N 40°42' W 074°01'2 0.3
2018-Jun-14 13:36N 40°44' W 074°02'0 4.0
2018-Jun-14 13:30N 40°44' W 074°01'0 0.7
2018-Jun-14 13:00N 40°44' W 074°02'2 4.4
2018-Jun-14 12:31N 40°42' W 074°00'1 2.3
2018-Jun-14 12:00N 40°43' W 074°02'1 2.3
2018-Jun-14 11:30N 40°44' W 074°02'2 4.2
2018-Jun-14 11:00N 40°42' W 074°00'1 2.3
2018-Jun-14 10:30N 40°43' W 074°01'1 2.4
2018-Jun-14 10:01N 40°44' W 074°02'0 0.0
2018-Jun-14 09:31N 40°44' W 074°02'0 0.0
2018-Jun-13 23:32N 40°44' W 074°02'0 1.1
2018-Jun-13 23:30N 40°44' W 074°02'1 2.7
2018-Jun-13 23:00N 40°43' W 074°01'1 2.2
2018-Jun-13 22:30N 40°42' W 074°00'2 4.4
2018-Jun-13 22:01N 40°44' W 074°02'1 2.8
2018-Jun-13 21:30N 40°43' W 074°01'1 2.1
2018-Jun-13 21:00N 40°42' W 074°00'2 4.4
2018-Jun-13 20:30N 40°44' W 074°02'0 0.2
2018-Jun-13 20:00N 40°44' W 074°01'2 3.0
2018-Jun-13 19:30N 40°42' W 074°01'2 0.3
2018-Jun-13 14:45N 40°44' W 074°02'1 2.4
2018-Jun-13 14:30N 40°45' W 074°01'2 3.3
2018-Jun-13 13:59N 40°46' W 074°01'2 4.7
2018-Jun-13 13:30N 40°44' W 074°02'0 0.1
2018-Jun-13 13:00N 40°44' W 074°02'2 4.1
2018-Jun-13 12:31N 40°42' W 074°00'1 2.8
2018-Jun-13 12:00N 40°43' W 074°01'1 1.5
2018-Jun-13 11:30N 40°44' W 074°02'2 4.2
2018-Jun-13 11:00N 40°42' W 074°00'1 2.7
2018-Jun-13 10:30N 40°43' W 074°02'1 1.9
2018-Jun-13 10:00N 40°44' W 074°02'0 0.0
2018-Jun-13 09:31N 40°44' W 074°02'0 0.0
2018-Jun-13 09:00N 40°44' W 074°02'0 0.0
2018-Jun-12 22:59N 40°44' W 074°02'1 2.7
2018-Jun-12 22:31N 40°43' W 074°01'1 2.2
2018-Jun-12 22:00N 40°42' W 074°00'2 4.5
2018-Jun-12 21:31N 40°44' W 074°02'2 3.2
2018-Jun-12 21:00N 40°42' W 074°01'1 1.7
2018-Jun-12 20:30N 40°42' W 074°00'2 4.5
2018-Jun-12 20:00N 40°44' W 074°02'1 3.0
2018-Jun-12 19:30N 40°43' W 074°02'1 0.2
2018-Jun-12 13:36N 40°44' W 074°02'0 2.5
2018-Jun-12 13:31N 40°44' W 074°01'0 0.3
2018-Jun-12 13:01N 40°44' W 074°02'2 4.1
2018-Jun-12 12:31N 40°42' W 074°00'1 2.6
2018-Jun-12 12:00N 40°43' W 074°02'1 1.9
2018-Jun-12 11:30N 40°44' W 074°02'2 4.0
2018-Jun-12 10:59N 40°42' W 074°00'1 2.2
2018-Jun-12 10:31N 40°43' W 074°01'1 2.8
2018-Jun-12 10:00N 40°44' W 074°02'0 0.0
2018-Jun-11 23:00N 40°44' W 074°02'1 2.3
2018-Jun-11 22:30N 40°43' W 074°01'1 2.0
2018-Jun-11 21:55N 40°42' W 074°00'2 4.9
2018-Jun-11 21:29N 40°44' W 074°02'1 3.0
2018-Jun-11 21:00N 40°43' W 074°01'1 1.7
2018-Jun-11 20:23N 40°42' W 074°00'2 6.0
2018-Jun-11 20:00N 40°44' W 074°02'1 3.0
2018-Jun-11 19:30N 40°43' W 074°01'1 0.3
2018-Jun-11 14:13N 40°44' W 074°02'2 8.9
2018-Jun-11 13:57N 40°46' W 074°01'2 4.9
2018-Jun-11 13:30N 40°44' W 074°02'0 0.1
2018-Jun-11 12:59N 40°44' W 074°02'2 4.3
2018-Jun-11 12:26N 40°42' W 074°01'1 2.5
2018-Jun-11 11:59N 40°43' W 074°02'1 2.7
2018-Jun-11 11:30N 40°44' W 074°02'2 4.0
2018-Jun-11 10:56N 40°42' W 074°00'1 2.6
2018-Jun-11 10:30N 40°43' W 074°01'1 2.7
2018-Jun-11 10:00N 40°44' W 074°02'0 0.0
2018-Jun-11 09:30N 40°44' W 074°02'0 0.0
2018-Jun-11 09:00N 40°44' W 074°02'  
2018-Jun-08 22:59N 40°44' W 074°02'1 2.8
2018-Jun-08 22:30N 40°43' W 074°01'1 2.0
2018-Jun-08 22:01N 40°42' W 074°00'2 4.3
2018-Jun-08 21:30N 40°44' W 074°02'2 3.5
2018-Jun-08 21:00N 40°42' W 074°01'1 1.6
2018-Jun-08 20:30N 40°42' W 074°00'2 4.5
2018-Jun-08 20:00N 40°44' W 074°02'1 2.8
2018-Jun-08 19:30N 40°43' W 074°02'1 0.3
2018-Jun-08 14:46N 40°44' W 074°02'2 8.7
2018-Jun-08 14:30N 40°46' W 074°01'0 0.0
2018-Jun-08 14:00N 40°46' W 074°01'2 4.5
2018-Jun-08 13:31N 40°44' W 074°02'0 0.1
2018-Jun-08 13:00N 40°44' W 074°02'2 4.2
2018-Jun-08 12:31N 40°42' W 074°00'1 2.4
2018-Jun-08 12:00N 40°43' W 074°02'1 2.4
2018-Jun-08 11:30N 40°44' W 074°02'2 4.3
2018-Jun-08 11:00N 40°42' W 074°00'1 2.5
2018-Jun-08 10:30N 40°43' W 074°01'1 2.0
2018-Jun-08 10:00N 40°44' W 074°02'0 0.0
2018-Jun-08 09:30N 40°44' W 074°02'  
Track history (hours):
 
Tides and Currents Weather Stations Pressure Air Temp Water Temp Dewpoint Dewpoint Depression Visibility Wind Speed Wind Dir Waves Ship Positions

Empire State

Owner: Port Imperial Ferry, Weehawken, NJ. More information available from US FCC via Universal Licensing System and Coast Guard Vessel Documentation Center.

Last reported at 2018-Jun-18 01:30 UTC. Time now 2018-Jun-18 01:32 UTC.
Position N 40°45' W 073°58'.

Length 23 m; draft 2 m.

Type: Passenger vessel. MMSI: 367415390.

Date/timePositionNaut miles runAvg speedWind from/ knotsBaromVisibWave heightAir tempDewpointWater temp
2018-Jun-18 01:30N 40°45' W 073°58'1 2.5
2018-Jun-18 01:00N 40°43' W 073°58'2 4.2
2018-Jun-18 00:30N 40°42' W 074°00'3 5.1
2018-Jun-18 00:00N 40°44' W 073°58'1 1.8
2018-Jun-17 23:30N 40°43' W 073°58'2 4.0
2018-Jun-17 23:00N 40°42' W 074°00'2 4.1
2018-Jun-17 22:30N 40°43' W 073°58'1 2.3
2018-Jun-17 22:00N 40°44' W 073°58'2 4.2
2018-Jun-17 21:30N 40°42' W 073°59'2 3.6
2018-Jun-17 21:00N 40°41' W 074°01'2 4.0
2018-Jun-17 20:24N 40°43' W 073°58'2 2.9
2018-Jun-17 19:51N 40°45' W 073°58'2 4.1
2018-Jun-17 19:22N 40°43' W 073°58'2 3.7
2018-Jun-17 18:55N 40°42' W 074°00'0 0.3
2018-Jun-17 18:29N 40°42' W 074°00'2 4.3
2018-Jun-17 17:59N 40°44' W 073°58'0 0.5
2018-Jun-17 17:16N 40°43' W 073°58'2 6.9
2018-Jun-17 17:00N 40°42' W 073°60'0 0.0
2018-Jun-17 16:18N 40°42' W 073°60'2 3.5
2018-Jun-17 15:48N 40°43' W 073°58'0 0.4
2018-Jun-17 15:06N 40°44' W 073°58'1 4.4
2018-Jun-17 14:52N 40°43' W 073°58'2 5.1
2018-Jun-17 14:28N 40°42' W 074°01'4 0.4
2018-Jun-17 01:43N 40°46' W 074°01'314.7
2018-Jun-17 01:30N 40°43' W 074°01'2 4.8
2018-Jun-17 01:00N 40°43' W 073°58'2 4.0
2018-Jun-17 00:30N 40°45' W 073°58'2 4.4
2018-Jun-17 00:01N 40°43' W 073°58'2 3.3
2018-Jun-16 23:31N 40°42' W 074°00'3 5.0
2018-Jun-16 23:00N 40°44' W 073°58'1 1.1
2018-Jun-16 22:30N 40°43' W 073°58'2 4.3
2018-Jun-16 22:01N 40°42' W 074°00'0 0.9
2018-Jun-16 21:30N 40°42' W 073°60'2 4.4
2018-Jun-16 21:00N 40°44' W 073°58'0 0.9
2018-Jun-16 20:30N 40°43' W 073°58'2 3.9
2018-Jun-16 20:01N 40°42' W 073°60'0 0.7
2018-Jun-16 19:31N 40°42' W 074°00'3 5.0
2018-Jun-16 19:00N 40°44' W 073°58'0 0.7
2018-Jun-16 18:31N 40°44' W 073°58'2 4.4
2018-Jun-16 18:00N 40°42' W 074°00'0 0.3
2018-Jun-16 17:30N 40°42' W 074°00'2 4.3
2018-Jun-16 17:01N 40°43' W 073°58'1 2.5
2018-Jun-16 16:30N 40°45' W 073°58'3 5.3
2018-Jun-16 15:59N 40°42' W 073°60'2 0.1
2018-Jun-15 22:58N 40°44' W 074°02'1 3.2
2018-Jun-15 22:30N 40°43' W 074°02'1 2.0
2018-Jun-15 22:01N 40°42' W 074°00'2 4.5
2018-Jun-15 21:30N 40°44' W 074°02'2 4.3
2018-Jun-15 21:01N 40°42' W 074°01'1 1.5
2018-Jun-15 20:30N 40°42' W 074°00'2 4.4
2018-Jun-15 20:00N 40°44' W 074°02'2 3.3
2018-Jun-15 19:30N 40°42' W 074°01'2 0.3
2018-Jun-15 14:22N 40°44' W 074°02'2 6.0
2018-Jun-15 14:00N 40°46' W 074°01'2 3.3
2018-Jun-15 13:30N 40°45' W 074°01'1 1.4
2018-Jun-15 13:01N 40°44' W 074°02'2 4.0
2018-Jun-15 12:31N 40°42' W 074°00'1 2.1
2018-Jun-15 12:00N 40°43' W 074°02'1 2.5
2018-Jun-15 11:30N 40°44' W 074°02'2 4.2
2018-Jun-15 11:00N 40°42' W 074°00'1 2.3
2018-Jun-15 10:30N 40°43' W 074°02'1 2.5
2018-Jun-15 10:00N 40°44' W 074°02'0 0.0
2018-Jun-15 09:29N 40°44' W 074°02'0 0.0
2018-Jun-14 23:01N 40°44' W 074°02'0 0.0
2018-Jun-14 23:01N 40°44' W 074°02'1 2.9
2018-Jun-14 22:31N 40°43' W 074°02'1 2.1
2018-Jun-14 22:00N 40°42' W 074°00'2 4.4
2018-Jun-14 21:31N 40°44' W 074°02'2 4.1
2018-Jun-14 21:00N 40°42' W 074°01'1 1.4
2018-Jun-14 20:30N 40°42' W 074°00'2 4.4
2018-Jun-14 20:00N 40°44' W 074°02'2 3.4
2018-Jun-14 19:30N 40°42' W 074°01'2 0.3
2018-Jun-14 13:36N 40°44' W 074°02'0 4.0
2018-Jun-14 13:30N 40°44' W 074°01'0 0.7
2018-Jun-14 13:00N 40°44' W 074°02'2 4.4
2018-Jun-14 12:31N 40°42' W 074°00'1 2.3
2018-Jun-14 12:00N 40°43' W 074°02'1 2.3
2018-Jun-14 11:30N 40°44' W 074°02'2 4.2
2018-Jun-14 11:00N 40°42' W 074°00'1 2.3
2018-Jun-14 10:30N 40°43' W 074°01'1 2.4
2018-Jun-14 10:01N 40°44' W 074°02'0 0.0
2018-Jun-14 09:31N 40°44' W 074°02'0 0.0
2018-Jun-13 23:32N 40°44' W 074°02'0 1.1
2018-Jun-13 23:30N 40°44' W 074°02'1 2.7
2018-Jun-13 23:00N 40°43' W 074°01'1 2.2
2018-Jun-13 22:30N 40°42' W 074°00'2 4.4
2018-Jun-13 22:01N 40°44' W 074°02'1 2.8
2018-Jun-13 21:30N 40°43' W 074°01'1 2.1
2018-Jun-13 21:00N 40°42' W 074°00'2 4.4
2018-Jun-13 20:30N 40°44' W 074°02'0 0.2
2018-Jun-13 20:00N 40°44' W 074°01'2 3.0
2018-Jun-13 19:30N 40°42' W 074°01'2 0.3
2018-Jun-13 14:45N 40°44' W 074°02'1 2.4
2018-Jun-13 14:30N 40°45' W 074°01'2 3.3
2018-Jun-13 13:59N 40°46' W 074°01'2 4.7
2018-Jun-13 13:30N 40°44' W 074°02'0 0.1
2018-Jun-13 13:00N 40°44' W 074°02'2 4.1
2018-Jun-13 12:31N 40°42' W 074°00'1 2.8
2018-Jun-13 12:00N 40°43' W 074°01'1 1.5
2018-Jun-13 11:30N 40°44' W 074°02'2 4.2
2018-Jun-13 11:00N 40°42' W 074°00'1 2.7
2018-Jun-13 10:30N 40°43' W 074°02'1 1.9
2018-Jun-13 10:00N 40°44' W 074°02'0 0.0
2018-Jun-13 09:31N 40°44' W 074°02'0 0.0
2018-Jun-13 09:00N 40°44' W 074°02'0 0.0
2018-Jun-12 22:59N 40°44' W 074°02'1 2.7
2018-Jun-12 22:31N 40°43' W 074°01'1 2.2
2018-Jun-12 22:00N 40°42' W 074°00'2 4.5
2018-Jun-12 21:31N 40°44' W 074°02'2 3.2
2018-Jun-12 21:00N 40°42' W 074°01'1 1.7
2018-Jun-12 20:30N 40°42' W 074°00'2 4.5
2018-Jun-12 20:00N 40°44' W 074°02'1 3.0
2018-Jun-12 19:30N 40°43' W 074°02'1 0.2
2018-Jun-12 13:36N 40°44' W 074°02'0 2.5
2018-Jun-12 13:31N 40°44' W 074°01'0 0.3
2018-Jun-12 13:01N 40°44' W 074°02'2 4.1
2018-Jun-12 12:31N 40°42' W 074°00'1 2.6
2018-Jun-12 12:00N 40°43' W 074°02'1 1.9
2018-Jun-12 11:30N 40°44' W 074°02'2 4.0
2018-Jun-12 10:59N 40°42' W 074°00'1 2.2
2018-Jun-12 10:31N 40°43' W 074°01'1 2.8
2018-Jun-12 10:00N 40°44' W 074°02'0 0.0
2018-Jun-11 23:00N 40°44' W 074°02'1 2.3
2018-Jun-11 22:30N 40°43' W 074°01'1 2.0
2018-Jun-11 21:55N 40°42' W 074°00'2 4.9
2018-Jun-11 21:29N 40°44' W 074°02'1 3.0
2018-Jun-11 21:00N 40°43' W 074°01'1 1.7
2018-Jun-11 20:23N 40°42' W 074°00'2 6.0
2018-Jun-11 20:00N 40°44' W 074°02'1 3.0
2018-Jun-11 19:30N 40°43' W 074°01'1 0.3
2018-Jun-11 14:13N 40°44' W 074°02'2 8.9
2018-Jun-11 13:57N 40°46' W 074°01'2 4.9
2018-Jun-11 13:30N 40°44' W 074°02'0 0.1
2018-Jun-11 12:59N 40°44' W 074°02'2 4.3
2018-Jun-11 12:26N 40°42' W 074°01'1 2.5
2018-Jun-11 11:59N 40°43' W 074°02'1 2.7
2018-Jun-11 11:30N 40°44' W 074°02'2 4.0
2018-Jun-11 10:56N 40°42' W 074°00'1 2.6
2018-Jun-11 10:30N 40°43' W 074°01'1 2.7
2018-Jun-11 10:00N 40°44' W 074°02'0 0.0
2018-Jun-11 09:30N 40°44' W 074°02'0 0.0
2018-Jun-11 09:00N 40°44' W 074°02'  
2018-Jun-08 22:59N 40°44' W 074°02'1 2.8
2018-Jun-08 22:30N 40°43' W 074°01'1 2.0
2018-Jun-08 22:01N 40°42' W 074°00'2 4.3
2018-Jun-08 21:30N 40°44' W 074°02'2 3.5
2018-Jun-08 21:00N 40°42' W 074°01'1 1.6
2018-Jun-08 20:30N 40°42' W 074°00'2 4.5
2018-Jun-08 20:00N 40°44' W 074°02'1 2.8
2018-Jun-08 19:30N 40°43' W 074°02'1 0.3
2018-Jun-08 14:46N 40°44' W 074°02'2 8.7
2018-Jun-08 14:30N 40°46' W 074°01'0 0.0
2018-Jun-08 14:00N 40°46' W 074°01'2 4.5
2018-Jun-08 13:31N 40°44' W 074°02'0 0.1
2018-Jun-08 13:00N 40°44' W 074°02'2 4.2
2018-Jun-08 12:31N 40°42' W 074°00'1 2.4
2018-Jun-08 12:00N 40°43' W 074°02'1 2.4
2018-Jun-08 11:30N 40°44' W 074°02'2 4.3
2018-Jun-08 11:00N 40°42' W 074°00'1 2.5
2018-Jun-08 10:30N 40°43' W 074°01'1 2.0
2018-Jun-08 10:00N 40°44' W 074°02'0 0.0
2018-Jun-08 09:30N 40°44' W 074°02'  

Dump ship's entire track history